ABI - Abilene Rgnl

Pirep is a free, collaborative database of all public and private airports located within the United States. All pilots are welcome to contribute, edit, and improve any airport they have local knowledge about, no registration required.
Uploaded photos will be licensed under a CC BY-SA 4.0 license. Please only upload photos you have the rights to use.
Tags
Public
Car Rental
METAR / TAF
Edit Tags
Food
Camping
Lodging
Bicycles
Swimming
Golfing
Fishing
Hot Springs
Museum
Flying Clubs
Airpark
Upcoming Events
No upcoming events. Is anything happening here soon?
*
*
*

Where exactly on/near the airport is this event taking place?

Is there a webpage with more information for this event?

Who should be contacted for more information?

What is this event all about?

Repeat every
Description
Transient Parking
Fuel Location
Landing & Tie-down Fees
Crew Car Availability
Last updated: 2023-10-10 02:08:38 CDT
Flying Clubs
WiFi Access
Airport Statistics
Location: Abilene, TX
Elevation: 1,790ft
Sectional: Dallas Ft Worth
Activation date: Nov 1953
Fuel: 100LL, A, A1+ (prices)
Runway 17R/35L: 7,208ft
Runway 17L/35R: 7,198ft
Access: Open to the public
Current Weather — MVFR
  • Weather data is strictly informational and not for flight planning purposes.
  • METAR
    2024-04-24 07:26:00 CDT
    Ceiling Wind Temperature Dewpoint Weather Visbility
    1,900ft 120° @ 7kt 64°F 60°F N/A 10SM
    Clouds: Few @ 900ft, Overcast @ 1,900ft
    Raw: KABI 241226Z 12007KT 10SM FEW009 OVC019 18/16 A3006 RMK AO2 T01780161 $
  • TAF
    2024-04-24 07:00:00 CDT – 2024-04-24 12:00:00 CDT
    Ceiling Wind Weather Visbility
    1,800ft 160° @ 8kt N/A 6SM
    Clouds: Broken @ 1,800ft
    Raw: KABI 241141Z 2412/2512 16008KT P6SM BKN018 FM241700 16008KT P6SM BKN027 FM241800 15011G23KT P6SM BKN045 FM250600 18013KT P6SM BKN020
  • TAF
    2024-04-24 12:00:00 CDT – 2024-04-24 13:00:00 CDT
    Ceiling Wind Weather Visbility
    2,700ft 160° @ 8kt N/A 6SM
    Clouds: Broken @ 2,700ft
    Raw: KABI 241141Z 2412/2512 16008KT P6SM BKN018 FM241700 16008KT P6SM BKN027 FM241800 15011G23KT P6SM BKN045 FM250600 18013KT P6SM BKN020
  • TAF
    2024-04-24 13:00:00 CDT – 2024-04-25 01:00:00 CDT
    Ceiling Wind Weather Visbility
    4,500ft 150° @ 11kt, gusts 23kt N/A 6SM
    Clouds: Broken @ 4,500ft
    Raw: KABI 241141Z 2412/2512 16008KT P6SM BKN018 FM241700 16008KT P6SM BKN027 FM241800 15011G23KT P6SM BKN045 FM250600 18013KT P6SM BKN020
  • TAF
    2024-04-25 01:00:00 CDT – 2024-04-25 07:00:00 CDT
    Ceiling Wind Weather Visbility
    2,000ft 180° @ 13kt N/A 6SM
    Clouds: Broken @ 2,000ft
    Raw: KABI 241141Z 2412/2512 16008KT P6SM BKN018 FM241700 16008KT P6SM BKN027 FM241800 15011G23KT P6SM BKN045 FM250600 18013KT P6SM BKN020
Click/tap to add an annotation marker to the map
Airport Webcams
No webcams added yet.
Direct links to live image URLs will be displayed inline on this page. URLs to separate webpages will be linked to.
URL:
Direct links to live image URLs will be displayed inline on this page. URLs to separate webpages will be linked to.
URL:
Remarks
  • Unctld arpt 2 nm ne of arpt, pat alt 2300 ft.
  • Mil avn svcs avbl at arpt.
  • Abi is arff index b; arff index c avbl with ppr.
  • Rwy 04/22 permly clsd, not avbl for acft opns.
Comments
Leave a comment What was your experience like at this airport?